createdAt,value
2023-02-16T00:01:00.001Z,23.02
2023-02-16T00:06:01.765Z,23.08
2023-02-16T00:11:21.910Z,23.10
2023-02-16T00:16:25.117Z,22.67
2023-02-16T00:21:27.050Z,24.02
2023-02-16T00:26:31.339Z,23.98
2023-02-16T00:31:33.219Z,24.38
2023-02-16T00:36:35.081Z,23.88
2023-02-16T00:41:52.028Z,23.85
2023-02-16T00:46:53.796Z,23.15
2023-02-16T00:51:55.813Z,23.40
2023-02-16T00:56:57.830Z,22.48
2023-02-16T01:01:59.643Z,22.80
2023-02-16T01:07:19.869Z,21.95
2023-02-16T01:12:22.119Z,21.55
2023-02-16T01:17:24.713Z,21.33
2023-02-16T01:22:33.344Z,20.67
2023-02-16T01:27:38.144Z,23.47
2023-02-16T01:32:40.407Z,20.88
2023-02-16T01:37:42.806Z,21.73
2023-02-16T01:42:52.105Z,21.33
2023-02-16T01:48:01.728Z,21.50
2023-02-16T01:53:23.747Z,21.27
2023-02-16T01:58:46.144Z,22.25
2023-02-16T02:04:06.377Z,22.45
2023-02-16T02:09:20.225Z,22.25
2023-02-16T02:14:32.223Z,22.92
2023-02-16T02:20:09.627Z,23.20
2023-02-16T02:30:40.793Z,20.70
2023-02-16T02:35:58.456Z,21.33
2023-02-16T02:41:22.275Z,21.38
2023-02-16T02:46:30.372Z,21.67
2023-02-16T02:51:33.895Z,21.73
2023-02-16T02:57:03.910Z,21.77
2023-02-16T03:02:06.355Z,22.98
2023-02-16T03:07:09.968Z,22.08
2023-02-16T03:12:32.064Z,20.02
2023-02-16T03:17:55.779Z,21.73
2023-02-16T03:23:16.806Z,21.52
2023-02-16T03:28:39.493Z,21.10
2023-02-16T03:33:41.619Z,19.67
2023-02-16T03:38:43.334Z,20.48
2023-02-16T03:43:45.001Z,20.65
2023-02-16T03:48:46.693Z,20.83
2023-02-16T03:53:48.353Z,22.38
2023-02-16T03:58:50.006Z,20.40
2023-02-16T04:03:51.788Z,22.73
2023-02-16T04:08:54.548Z,20.52
2023-02-16T04:13:56.303Z,20.27
2023-02-16T04:18:58.014Z,21.05
2023-02-16T04:24:00.040Z,21.42
2023-02-16T04:29:01.707Z,20.13
2023-02-16T04:34:03.413Z,21.65
2023-02-16T04:39:05.397Z,21.05
2023-02-16T04:44:07.166Z,20.00
2023-02-16T04:49:08.828Z,21.95
2023-02-16T04:54:10.472Z,21.30
2023-02-16T04:59:12.606Z,20.13
2023-02-16T05:04:14.536Z,21.80
2023-02-16T05:09:16.289Z,21.70
2023-02-16T05:14:42.781Z,20.20
2023-02-16T05:19:47.240Z,20.08
2023-02-16T05:24:49.413Z,20.52
2023-02-16T05:29:51.741Z,20.27
2023-02-16T05:34:53.566Z,21.25
2023-02-16T05:39:55.251Z,18.70
2023-02-16T05:44:56.910Z,21.08
2023-02-16T05:49:58.596Z,20.95
2023-02-16T05:55:00.311Z,20.98
2023-02-16T06:00:03.438Z,21.13
2023-02-16T06:05:06.646Z,20.30
2023-02-16T06:10:09.081Z,21.45
2023-02-16T06:15:11.860Z,21.20
2023-02-16T06:20:13.573Z,19.35
2023-02-16T06:25:15.383Z,21.17
2023-02-16T06:30:17.378Z,20.45
2023-02-16T06:35:19.057Z,21.35
2023-02-16T06:40:21.463Z,21.17
2023-02-16T06:45:23.211Z,20.40
2023-02-16T06:50:24.891Z,20.42
2023-02-16T06:55:26.617Z,21.73
2023-02-16T07:00:29.723Z,20.92
2023-02-16T07:05:31.439Z,20.38
2023-02-16T07:10:47.711Z,21.13
2023-02-16T07:15:51.215Z,22.02
2023-02-16T07:20:53.119Z,21.50
2023-02-16T07:25:54.854Z,19.83
2023-02-16T07:30:56.632Z,20.02
2023-02-16T07:35:58.587Z,21.45
2023-02-16T07:41:00.379Z,23.40
2023-02-16T07:46:02.287Z,22.15
2023-02-16T07:51:04.989Z,24.35
2023-02-16T07:56:06.983Z,22.48
2023-02-16T08:01:11.062Z,21.15
2023-02-16T08:06:13.689Z,21.38
2023-02-16T08:11:17.150Z,21.02
2023-02-16T08:16:24.682Z,23.05
2023-02-16T08:21:32.595Z,20.13
2023-02-16T08:26:37.819Z,21.77
2023-02-16T08:31:39.955Z,19.83
2023-02-16T08:36:44.632Z,19.92
2023-02-16T08:41:48.279Z,20.67
2023-02-16T08:46:51.030Z,20.25
2023-02-16T08:51:55.670Z,18.85
2023-02-16T08:56:59.827Z,19.90
2023-02-16T09:02:01.544Z,19.17
2023-02-16T09:07:03.464Z,19.92
2023-02-16T09:12:05.580Z,21.05
2023-02-16T09:17:07.360Z,20.45
2023-02-16T09:22:09.034Z,19.73
2023-02-16T09:27:11.611Z,21.75
2023-02-16T09:32:14.644Z,21.63
2023-02-16T09:37:16.247Z,21.92
2023-02-16T09:42:24.428Z,20.75
2023-02-16T09:47:32.105Z,23.40
2023-02-16T09:52:42.826Z,22.98
2023-02-16T09:57:55.731Z,22.52
2023-02-16T10:03:32.237Z,22.77
2023-02-16T10:08:45.468Z,22.20
2023-02-16T10:13:54.065Z,23.10
2023-02-16T10:18:58.856Z,23.52
2023-02-16T10:24:05.192Z,21.92
2023-02-16T10:29:12.890Z,22.77
2023-02-16T10:34:23.445Z,21.80
2023-02-16T10:39:35.133Z,22.80
2023-02-16T10:44:43.856Z,22.85
2023-02-16T10:49:47.894Z,21.48
2023-02-16T10:54:49.536Z,21.10
2023-02-16T10:59:51.395Z,19.20
2023-02-16T11:04:54.784Z,20.83
2023-02-16T11:10:00.897Z,22.33
2023-02-16T11:15:18.764Z,22.00
2023-02-16T11:20:31.812Z,20.80
2023-02-16T11:25:33.429Z,19.48
2023-02-16T11:30:41.386Z,13.98
2023-02-16T11:35:45.797Z,13.40
2023-02-16T11:40:52.755Z,18.95
2023-02-16T11:46:20.178Z,16.75
2023-02-16T11:51:34.901Z,12.95
2023-02-16T11:56:36.593Z,13.57
2023-02-16T12:02:08.607Z,14.30
2023-02-16T12:07:28.812Z,19.10
2023-02-16T12:12:48.904Z,14.45
2023-02-16T12:18:02.710Z,15.25
2023-02-16T12:23:18.471Z,14.48
2023-02-16T12:28:41.678Z,14.27
2023-02-16T12:34:01.569Z,16.05
2023-02-16T12:39:12.279Z,15.77
2023-02-16T12:44:25.026Z,14.55
2023-02-16T12:49:49.379Z,14.73
2023-02-16T12:55:11.025Z,14.05
2023-02-16T13:00:33.194Z,13.93
2023-02-16T13:05:38.004Z,15.02
2023-02-16T13:11:05.615Z,15.18
2023-02-16T13:16:24.167Z,15.73
2023-02-16T13:21:50.989Z,14.60
2023-02-16T13:27:18.174Z,14.95
2023-02-16T13:32:48.697Z,15.18
2023-02-16T13:37:59.928Z,14.52
2023-02-16T13:43:30.831Z,15.45
2023-02-16T13:48:47.432Z,14.10
2023-02-16T13:53:52.296Z,13.43
2023-02-16T13:58:54.298Z,12.45
2023-02-16T14:03:55.904Z,13.80
2023-02-16T14:09:13.174Z,12.27
2023-02-16T14:14:53.017Z,11.27
2023-02-16T14:19:54.630Z,12.73
2023-02-16T14:25:00.000Z,13.43
2023-02-16T14:30:03.382Z,13.00
2023-02-16T14:35:15.699Z,12.25
2023-02-16T14:40:38.704Z,10.75
2023-02-16T14:45:49.340Z,11.18
2023-02-16T14:51:28.940Z,12.02
2023-02-16T14:56:59.570Z,11.57
2023-02-16T15:02:21.280Z,11.50
2023-02-16T15:07:26.120Z,23.05
2023-02-16T15:12:32.651Z,25.20
2023-02-16T15:17:45.809Z,26.23
2023-02-16T15:22:56.134Z,26.00
2023-02-16T15:28:16.908Z,27.77
2023-02-16T15:33:24.623Z,26.58
2023-02-16T15:38:28.122Z,27.65
2023-02-16T15:43:35.845Z,26.95
2023-02-16T15:48:38.252Z,29.17
2023-02-16T15:53:52.260Z,28.65
2023-02-16T15:58:55.890Z,28.88
2023-02-16T16:03:57.571Z,28.73
2023-02-16T16:08:59.810Z,29.73
2023-02-16T16:14:06.144Z,30.40
2023-02-16T16:19:18.442Z,29.30
2023-02-16T16:24:38.757Z,31.58
2023-02-16T16:29:44.100Z,30.48
2023-02-16T16:34:46.168Z,30.73
2023-02-16T16:40:22.088Z,31.42
2023-02-16T16:45:36.652Z,31.63
2023-02-16T16:50:39.866Z,32.42
2023-02-16T16:55:41.575Z,31.25
2023-02-16T17:00:45.728Z,32.25
2023-02-16T17:05:47.455Z,32.42
2023-02-16T17:10:49.166Z,35.60
2023-02-16T17:16:02.353Z,34.47
2023-02-16T17:21:05.302Z,34.38
2023-02-16T17:26:07.523Z,34.45
2023-02-16T17:31:10.983Z,38.35
2023-02-16T17:36:15.526Z,36.47
2023-02-16T17:41:29.391Z,44.88
2023-02-16T17:46:32.216Z,34.28
2023-02-16T17:51:36.295Z,33.25
2023-02-16T17:56:41.827Z,36.38
2023-02-16T18:01:45.029Z,39.47
2023-02-16T18:06:48.573Z,44.00
2023-02-16T18:11:51.237Z,39.83
2023-02-16T18:16:53.578Z,37.50
2023-02-16T18:21:55.845Z,37.75
2023-02-16T18:26:57.570Z,37.63
2023-02-16T18:32:03.212Z,37.00
2023-02-16T18:37:04.893Z,38.65
2023-02-16T18:42:06.972Z,38.53
2023-02-16T18:47:11.956Z,40.05
2023-02-16T18:52:13.547Z,37.22
2023-02-16T18:57:15.356Z,38.38
2023-02-16T19:02:17.005Z,37.97
2023-02-16T19:07:19.380Z,38.40
2023-02-16T19:12:21.100Z,40.08
2023-02-16T19:17:22.688Z,40.25
2023-02-16T19:22:25.120Z,41.63
2023-02-16T19:27:26.914Z,38.78
2023-02-16T19:32:29.632Z,38.33
2023-02-16T19:37:32.061Z,40.60
2023-02-16T19:42:33.758Z,41.05
2023-02-16T19:47:35.938Z,38.55
2023-02-16T19:52:38.432Z,41.42
2023-02-16T19:57:42.406Z,40.95
2023-02-16T20:02:44.368Z,39.97
2023-02-16T20:07:46.964Z,25.33
2023-02-16T20:12:49.142Z,19.75
2023-02-16T20:18:01.069Z,17.70
2023-02-16T20:23:02.858Z,17.13
2023-02-16T20:28:04.745Z,17.00
2023-02-16T20:33:06.397Z,17.65
2023-02-16T20:38:08.159Z,18.00
2023-02-16T20:43:10.362Z,15.70
2023-02-16T20:48:12.498Z,17.08
2023-02-16T20:53:14.396Z,16.88
2023-02-16T20:58:17.228Z,16.23
2023-02-16T21:03:19.052Z,15.60
2023-02-16T21:08:21.051Z,14.68
2023-02-16T21:13:22.989Z,15.55
2023-02-16T21:18:27.169Z,15.65
2023-02-16T21:23:30.083Z,14.23
2023-02-16T21:28:32.116Z,14.32
2023-02-16T21:33:34.091Z,13.45
2023-02-16T21:38:36.752Z,12.38
2023-02-16T21:43:38.750Z,13.75
2023-02-16T21:48:52.941Z,12.80
2023-02-16T21:53:55.392Z,11.68
2023-02-16T21:58:57.702Z,11.23
2023-02-16T22:04:00.559Z,11.73
2023-02-16T22:09:06.726Z,11.75
2023-02-16T22:14:08.445Z,10.70
2023-02-16T22:19:15.301Z,10.93
2023-02-16T22:24:18.406Z,10.50
2023-02-16T22:29:20.098Z,11.15
2023-02-16T22:34:22.551Z,10.27
2023-02-16T22:39:24.279Z,10.20
2023-02-16T22:44:25.989Z,10.13
2023-02-16T22:49:27.673Z,10.02
2023-02-16T22:54:29.271Z,10.60
2023-02-16T22:59:30.954Z,10.45
2023-02-16T23:04:32.686Z,10.23
2023-02-16T23:09:34.605Z,9.70
2023-02-16T23:14:37.671Z,10.32
2023-02-16T23:19:40.206Z,9.10
2023-02-16T23:24:41.882Z,9.77
2023-02-16T23:29:43.545Z,9.55
2023-02-16T23:34:45.260Z,8.65
2023-02-16T23:39:47.011Z,9.82
2023-02-16T23:44:48.754Z,10.07
2023-02-16T23:49:50.556Z,9.98
2023-02-16T23:54:52.203Z,9.95
2023-02-16T23:59:53.824Z,8.88
